Terminal Aerodrome Forecast
Issued by NWS Louisville, KY

Home | Current Version | Previous Version | Text Only | Print | Product List | Glossary On
Versions: 1 2 3 4 5 6 7 8 9 10 11 12 13 14 15 16 17 18
000
FTUS43 KLMK 312300
TAFSDF
TAF
KSDF 312321Z 0100/0206 31014G24KT P6SM -RASN BKN027
      TEMPO 0100/0102 4SM -RAPLSN BKN018
     FM010200 32016G26KT 5SM -SN BR BKN015
     FM010500 33016G24KT P6SM OVC015
     FM011000 34015G22KT P6SM OVC025
     FM011500 34013G20KT P6SM BKN035
     FM012300 35007KT P6SM SKC=

USA.gov is the U.S. government's official web portal to all federal, state and local government web resources and services.